Granger, IN (46530)

10:15 PM EDT on October 20, 2014 (GMT -0400)
Milton Township | Change Station
CLOSE
Current Station
Personal Weather Station
Location: Niles, MI
Elevation: 846 ft
Nearby Weather Stations

Elev 846 ft 41.77 °N, 86.17 °W | Updated 0 second ago

Overcast
Overcast
50.4 °F
Feels Like 50.4 °F
N
0.0
Wind Variable Wind from NNW
Gusts 0.0 mph

Today
High -- | Low -- °F
--% Chance of Precip.
Yesterday
High -- | Low -- °F
Precip. -- in
8:02 AM 6:55 PM
Waning Crescent, 8% visible
Pressure 29.94 in
Visibility 10.0 miles
Clouds Mostly Cloudy 4600 ft
Overcast 7000 ft
Dew Point 46 °F
Humidity 85%
Rainfall 0.00 in
Snow Depth Not available.
UV 0.0 out of 12
Pollen 1.10 out of 12
Air Quality Not available.
Flu Activity Sporadic
METAR KEKM 210050Z 31008KT 10SM BKN046 OVC070 11/08 A2994

More Conditions Fewer Conditions

Pressure 29.94 in
Visibility 10.0 miles
Clouds Mostly Cloudy 4600 ft
Overcast 7000 ft
Dew Point 46 °F
Humidity 85%
Rainfall 0.00 in
Snow Depth Not available.
UV 0.0 out of 12
Pollen 1.10 out of 12
Air Quality Not available.
Flu Activity Sporadic
METAR KEKM 210050Z 31008KT 10SM BKN046 OVC070 11/08 A2994

More Conditions Fewer Conditions

10-Day Weather Forecast

Almanac

Astronomy

Oct. 20, 2014 Rise Set
Actual Time 8:02 AM EDT 6:55 PM EDT
Civil Twilight 7:34 AM EDT 7:23 PM EDT
Nautical Twilight 7:01 AM EDT 7:56 PM EDT
Astronomical Twilight 6:29 AM EDT 8:28 PM EDT
Moon 4:47 AM EDT (10/20) 5:20 PM EDT (10/20)
Length of Visible Light 11h 49m
Length of Day
10h 53m
Tomorrow will be 2m 38s shorter.
Waning Crescent, 8% of the Moon is Illuminated
Today
Waning Crescent
Oct 23
New
Oct 30
First Quarter
Nov 6
Full
Nov 14
Last Quarter

Today's Extremes

State Highs State Lows

Community

WunderPhotos

Upload Photos

1,763,572 photos uploaded!

Nearby

Air Quality

  Air Quality AQ Index Pollutant
Monday Good
OZONE
Monday Good
PM2.5
Tuesday Good
OZONE
Tuesday Good
PM2.5
Wednesday Good
OZONE
Wednesday Good
PM2.5
Thursday Moderate
PM2.5
Thursday Good
OZONE
Friday Moderate
PM2.5
Friday Good
OZONE

Snow Depth

Station Depth Elevation
No new snow has been reported.

Earthquake Activity

City Distance Mag. Time & Date
No recent earthquake activity has been reported nearby.
Minimum magnitude displayed is 2.5.

Coastal Water Temperatures

Place Temperature
Holland, MI 54.0 °F

Nearby Weather Stations